Aérodrome :
LOGIN :

S'inscrire | Disclaimer

   EN    FR    IT 

 










Légende :    VFR   VFR Marginal   IFR   IFR Intensif   IFR Très Intensif
Visi : 
Plafond : 
>= 8 km
>= 3000ft
5 à 8 km
1000 à 3000 ft
1500m à 5 km
500 à 1000 ft
800 à 1500m
200 à 500 ft
< 800m
< 200 ft
Symboles :   Orages  Brouillard  Fortes neiges  Fortes précipitations  Vent > 20 kt
SIGMETs :   Divers  Orages  Givrage  Turbulence  Onde Orograph.  Cendres Volcan.







- Altitude de l'aérodrome : 397 ft
- Code IATA : IAS


LRIA - Iasi

DERNIER METAR :
  • 210930Z 29010KT 9999 FEW040 10/M06 Q1033

METARs EXPIRÉS :
  • 210900Z 33009KT CAVOK 10/M02 Q1033
  • 210830Z 30006KT 240V340 CAVOK 09/M01 Q1033
  • 210800Z 27006KT 230V310 CAVOK 08/M01 Q1033
  • 210730Z 25005KT 210V310 CAVOK 07/M00 Q1033
  • 210700Z 24005KT CAVOK 05/M01 Q1033
  • 210630Z 25005KT 220V280 CAVOK 05/M00 Q1034

TAF TAF LRIA
Valide du 21 à 09h jusqu'au 21 à 18h UTC


210800Z 2109/2118 31010KT CAVOK
Pas de NOTAMs connus pour ce terrain.



MET'MAP, la Météo Aéronautique d'un coup d'oeil ! - Copyright ORBIFLY Décembre 2007 - Disclaimer

ORBIFLY MET'MAP TEAM :

Programmation & Développement : Alexandra Zaïnal
Conception & Développement : Baudouin d'Aumeries
Co-Programmation & Développement : Marc-Olivier Méhu
Soutien technique & logistique : Manuel Goepfert

Contact : metmap@orbifly.com




SOURCES & CREDITS :

   NOAA